Time;durP1;ratioP1;P1;durP2;ratioP2;P2;SDS_P1;SDS_P2;PMS_P1;PMS_P2;Temp;Humidity;BMP_temperature;BMP_pressure;BME280_temperature;BME280_humidity;BME280_pressure;Samples;Min_cycle;Max_cycle;Signal;HPM_P1;HPM_P2
2022/12/18 00:00:35;;;;;;;2.45;0.43;;;18.70;99.90;;;;;;5117464;28;20205;-76
2022/12/18 00:03:06;;;;;;;2.63;1.17;;;18.60;99.90;;;;;;5116669;28;20196;-77
2022/12/18 00:05:37;;;;;;;1.15;0.50;;;18.30;99.90;;;;;;5116672;28;20188;-76
2022/12/18 00:08:10;;;;;;;1.85;1.00;;;18.20;99.90;;;;;;5117368;28;20219;-77
2022/12/18 00:10:40;;;;;;;2.83;0.90;;;18.10;99.90;;;;;;5117290;28;20191;-75
2022/12/18 00:13:11;;;;;;;1.10;0.40;;;18.10;99.90;;;;;;5117362;28;20196;-78
2022/12/18 00:15:42;;;;;;;1.88;0.40;;;18.30;99.90;;;;;;5116856;28;20194;-75
2022/12/18 00:18:13;;;;;;;0.90;0.30;;;18.50;99.90;;;;;;5117042;28;20202;-78
2022/12/18 00:20:44;;;;;;;1.77;0.57;;;18.60;99.90;;;;;;5116548;28;20188;-76
2022/12/18 00:23:19;;;;;;;2.35;0.50;;;18.70;99.90;;;;;;5117303;28;20194;-77
2022/12/18 00:25:50;;;;;;;1.30;0.40;;;19.00;99.90;;;;;;5120435;27;20247;-76
2022/12/18 00:28:21;;;;;;;2.20;0.50;;;19.10;99.90;;;;;;5137722;27;20658;-75
2022/12/18 00:30:52;;;;;;;2.22;0.50;;;19.10;99.90;;;;;;5128591;27;20191;-75
2022/12/18 00:33:22;;;;;;;1.10;0.40;;;19.30;99.90;;;;;;5116636;28;20201;-75
2022/12/18 00:35:53;;;;;;;0.32;0.30;;;19.30;99.90;;;;;;5114901;28;20230;-77
2022/12/18 00:38:26;;;;;;;1.33;0.30;;;19.30;99.90;;;;;;5119461;27;20196;-79
2022/12/18 00:40:57;;;;;;;0.20;0.20;;;19.30;99.90;;;;;;5116335;28;20282;-76
2022/12/18 00:43:26;;;;;;;1.83;0.20;;;19.30;99.90;;;;;;5134117;27;20194;-77
2022/12/18 00:45:58;;;;;;;0.90;0.20;;;19.30;99.90;;;;;;5130234;27;20282;-75
2022/12/18 00:48:28;;;;;;;3.10;0.45;;;19.50;99.90;;;;;;5127601;27;20286;-77
2022/12/18 00:50:59;;;;;;;2.08;0.30;;;19.40;99.90;;;;;;5126593;27;20205;-76
2022/12/18 00:53:32;;;;;;;1.95;0.30;;;19.50;99.90;;;;;;5130080;27;20192;-76
2022/12/18 00:56:03;;;;;;;2.42;0.40;;;19.60;99.90;;;;;;5126712;27;20194;-75
2022/12/18 00:58:36;;;;;;;1.65;0.40;;;19.60;99.90;;;;;;5125720;27;20222;-75
2022/12/18 01:01:08;;;;;;;2.55;0.47;;;19.90;99.90;;;;;;5113190;27;20279;-76
2022/12/18 01:03:39;;;;;;;3.33;0.40;;;20.00;99.90;;;;;;5122196;27;20203;-80
2022/12/18 01:06:11;;;;;;;4.43;0.47;;;19.90;99.90;;;;;;5113427;28;20191;-77
2022/12/18 01:08:44;;;;;;;2.70;0.40;;;19.50;99.90;;;;;;5120839;27;20672;-76
2022/12/18 01:11:16;;;;;;;1.58;0.50;;;19.00;99.90;;;;;;5117426;27;20204;-77
2022/12/18 01:13:47;;;;;;;0.75;0.40;;;18.70;99.90;;;;;;5136755;27;20187;-82
2022/12/18 01:16:19;;;;;;;1.67;0.30;;;18.80;99.90;;;;;;5118130;27;20202;-82
2022/12/18 01:18:53;;;;;;;1.20;0.38;;;18.90;99.90;;;;;;5125067;27;20199;-82
2022/12/18 01:21:24;;;;;;;3.33;0.70;;;18.80;99.90;;;;;;5095796;28;20188;-80
2022/12/18 01:24:00;;;;;;;2.75;0.50;;;18.70;99.90;;;;;;5111045;28;20215;-77
2022/12/18 01:26:31;;;;;;;1.80;0.50;;;18.70;99.90;;;;;;5129956;27;20210;-80
2022/12/18 01:29:02;;;;;;;1.85;0.50;;;18.70;99.90;;;;;;5133667;27;20243;-79
2022/12/18 01:31:34;;;;;;;4.22;0.70;;;18.60;99.90;;;;;;5115995;28;20192;-82
2022/12/18 01:34:05;;;;;;;3.63;0.60;;;18.40;99.90;;;;;;5112340;27;20196;-84
2022/12/18 01:36:38;;;;;;;2.90;0.70;;;18.30;99.90;;;;;;5103796;28;20235;-83
2022/12/18 01:39:13;;;;;;;4.13;0.70;;;18.40;99.90;;;;;;5115373;28;20246;-81
2022/12/18 01:44:56;;;;;;;3.55;0.80;;;18.40;99.90;;;;;;5122544;27;20232;-87
2022/12/18 01:47:31;;;;;;;6.68;0.90;;;18.30;99.90;;;;;;5115928;27;20212;-84
2022/12/18 01:50:04;;;;;;;5.15;0.95;;;18.40;99.90;;;;;;5114848;28;20202;-86
2022/12/18 01:52:37;;;;;;;5.00;0.90;;;18.50;99.90;;;;;;5122857;27;20205;-84
2022/12/18 01:55:14;;;;;;;6.10;1.17;;;18.40;99.90;;;;;;5121881;27;20195;-78
2022/12/18 01:57:46;;;;;;;5.45;0.90;;;18.00;99.90;;;;;;5128182;27;20219;-86
2022/12/18 02:00:19;;;;;;;4.32;0.90;;;17.80;99.90;;;;;;5110647;27;20196;-84
2022/12/18 02:02:50;;;;;;;9.38;1.20;;;17.60;99.90;;;;;;5133188;27;20198;-84
2022/12/18 02:05:26;;;;;;;5.22;1.00;;;17.40;99.90;;;;;;5134878;27;20542;-86
2022/12/18 02:08:10;;;;;;;9.48;1.10;;;17.20;99.90;;;;;;5115283;28;20218;-85
2022/12/18 02:10:48;;;;;;;10.98;2.10;;;17.10;99.90;;;;;;5115024;28;20223;-86
2022/12/18 02:13:26;;;;;;;6.32;1.30;;;17.20;99.90;;;;;;5113961;27;20650;-88
2022/12/18 02:16:08;;;;;;;10.10;1.45;;;17.40;99.90;;;;;;5130402;27;20198;-84
2022/12/18 02:18:43;;;;;;;6.82;1.10;;;17.50;99.90;;;;;;5118183;27;20200;-85
2022/12/18 02:21:23;;;;;;;3.65;0.98;;;17.60;99.90;;;;;;5129373;27;20194;-84
2022/12/18 02:23:59;;;;;;;7.13;1.05;;;17.60;99.90;;;;;;5134698;27;20203;-83
2022/12/18 02:26:36;;;;;;;4.93;1.30;;;17.50;99.90;;;;;;5135643;27;20191;-87
2022/12/18 02:29:14;;;;;;;10.27;1.00;;;17.50;99.90;;;;;;5128641;27;20204;-83
2022/12/18 02:31:50;;;;;;;5.95;1.10;;;17.50;99.90;;;;;;5102725;28;20199;-82
2022/12/18 02:34:23;;;;;;;7.80;1.30;;;17.40;99.90;;;;;;5107929;27;20202;-85
2022/12/18 02:36:56;;;;;;;5.38;1.00;;;17.60;99.90;;;;;;5118123;27;20250;-83
2022/12/18 02:39:29;;;;;;;9.77;1.85;;;17.90;99.90;;;;;;5113618;28;20218;-84
2022/12/18 02:42:07;;;;;;;7.43;1.75;;;18.10;99.90;;;;;;5111160;28;20184;-78
2022/12/18 02:44:44;;;;;;;5.68;1.05;;;18.50;99.90;;;;;;5112133;28;20227;-82
2022/12/18 02:47:16;;;;;;;5.25;1.20;;;18.70;99.90;;;;;;5116108;27;20211;-84
2022/12/18 02:49:59;;;;;;;13.63;1.63;;;18.90;99.90;;;;;;5112635;28;20205;-83
2022/12/18 02:52:38;;;;;;;7.75;1.40;;;19.30;99.90;;;;;;5095975;28;20192;-83
2022/12/18 02:55:28;;;;;;;6.78;1.10;;;19.50;99.90;;;;;;5130423;27;20191;-86
2022/12/18 02:58:05;;;;;;;2.22;0.65;;;19.70;99.90;;;;;;5099384;28;20665;-85
2022/12/18 03:00:42;;;;;;;5.82;1.05;;;19.60;99.90;;;;;;5112108;28;20222;-84
2022/12/18 03:03:16;;;;;;;5.22;1.00;;;19.80;99.90;;;;;;5119909;27;20194;-82
2022/12/18 03:05:52;;;;;;;4.90;0.88;;;20.00;99.90;;;;;;5129721;27;20194;-80
2022/12/18 03:08:25;;;;;;;3.15;0.70;;;19.80;99.90;;;;;;5114002;28;20218;-86
2022/12/18 03:11:02;;;;;;;6.28;1.33;;;19.70;99.90;;;;;;5116928;27;20276;-81
2022/12/18 03:13:39;;;;;;;3.90;0.90;;;19.80;99.90;;;;;;5133486;27;20189;-80
2022/12/18 03:16:13;;;;;;;6.00;0.70;;;19.70;99.90;;;;;;5118871;27;20192;-80
2022/12/18 03:18:52;;;;;;;4.57;0.85;;;19.80;99.90;;;;;;5113284;27;20203;-77
2022/12/18 03:21:30;;;;;;;3.88;0.80;;;19.90;99.90;;;;;;5105693;28;20198;-81
2022/12/18 03:24:02;;;;;;;6.82;0.90;;;20.00;99.90;;;;;;5123639;27;20538;-82
2022/12/18 03:26:34;;;;;;;3.22;0.88;;;19.80;99.90;;;;;;5126983;27;20203;-85
2022/12/18 03:29:12;;;;;;;4.30;0.75;;;19.80;99.90;;;;;;5111394;27;20212;-82
2022/12/18 03:31:45;;;;;;;7.80;0.93;;;19.90;99.90;;;;;;5124985;27;20194;-79
2022/12/18 03:34:20;;;;;;;5.80;0.57;;;19.90;99.90;;;;;;5113958;27;20195;-80
2022/12/18 03:36:51;;;;;;;3.45;0.75;;;19.70;99.90;;;;;;5097830;28;20310;-82
2022/12/18 03:39:23;;;;;;;19.80;12.57;;;19.70;99.90;;;;;;5095438;28;20188;-79
2022/12/18 03:41:58;;;;;;;6.45;3.47;;;19.80;99.90;;;;;;5113703;28;20187;-80
2022/12/18 03:44:34;;;;;;;7.55;3.00;;;19.80;99.90;;;;;;5113310;28;20178;-79
2022/12/18 03:47:10;;;;;;;5.95;1.13;;;19.80;99.90;;;;;;5113491;28;20191;-84
2022/12/18 03:49:48;;;;;;;2.75;0.70;;;19.90;99.90;;;;;;5093274;28;20198;-80
2022/12/18 03:52:24;;;;;;;4.35;0.73;;;19.80;99.90;;;;;;5110752;28;20556;-80
2022/12/18 03:54:57;;;;;;;5.22;0.80;;;19.70;99.90;;;;;;5113493;28;20662;-80
2022/12/18 03:57:31;;;;;;;6.60;0.90;;;19.70;99.90;;;;;;5113479;28;20187;-81
2022/12/18 04:00:07;;;;;;;3.47;0.55;;;19.70;99.90;;;;;;5113495;28;20195;-80
2022/12/18 04:02:40;;;;;;;7.03;1.10;;;19.70;99.90;;;;;;5113649;28;20189;-84
2022/12/18 04:05:12;;;;;;;6.82;0.90;;;19.70;99.90;;;;;;5113648;28;20188;-81
2022/12/18 04:07:44;;;;;;;7.57;0.93;;;19.70;99.90;;;;;;5112769;28;20215;-79
2022/12/18 04:10:16;;;;;;;6.10;0.93;;;19.90;99.90;;;;;;5113546;28;20241;-80
2022/12/18 04:12:47;;;;;;;5.65;0.80;;;19.90;99.90;;;;;;5113291;28;20192;-75
2022/12/18 04:15:19;;;;;;;4.57;0.85;;;19.80;99.90;;;;;;5113534;28;20187;-78
2022/12/18 04:17:52;;;;;;;6.13;0.90;;;19.90;99.90;;;;;;5113425;28;20187;-77
2022/12/18 04:20:23;;;;;;;3.53;0.73;;;20.00;99.90;;;;;;5112817;28;20188;-76
2022/12/18 04:22:54;;;;;;;5.10;1.00;;;20.00;99.90;;;;;;5113376;28;20188;-76
2022/12/18 04:25:25;;;;;;;5.97;1.02;;;20.00;99.90;;;;;;5113468;28;20188;-75
2022/12/18 04:27:55;;;;;;;3.40;0.70;;;20.00;99.90;;;;;;5113569;28;20251;-78
2022/12/18 04:30:29;;;;;;;3.42;0.70;;;19.80;99.90;;;;;;5113094;28;20183;-80
2022/12/18 04:33:00;;;;;;;5.13;0.60;;;19.70;99.90;;;;;;5113168;28;20194;-76
2022/12/18 04:35:31;;;;;;;4.05;0.95;;;19.60;99.90;;;;;;5112701;28;20196;-77
2022/12/18 04:38:01;;;;;;;3.33;0.60;;;19.60;99.90;;;;;;5113276;28;20191;-77
2022/12/18 04:40:33;;;;;;;6.38;0.95;;;19.50;99.90;;;;;;5112781;28;20223;-77
2022/12/18 04:43:04;;;;;;;4.20;0.65;;;19.60;99.90;;;;;;5111828;28;20232;-77
2022/12/18 04:45:37;;;;;;;4.75;0.80;;;19.70;99.90;;;;;;5116709;28;20548;-80
2022/12/18 04:48:08;;;;;;;4.93;0.90;;;19.80;99.90;;;;;;5117213;28;20235;-77
2022/12/18 04:50:39;;;;;;;7.32;0.88;;;19.90;99.90;;;;;;5116282;28;20184;-77
2022/12/18 04:53:10;;;;;;;2.28;0.60;;;20.10;99.90;;;;;;5116630;28;20199;-77
2022/12/18 04:55:41;;;;;;;5.10;0.70;;;20.10;99.90;;;;;;5116089;28;20190;-77
2022/12/18 04:58:11;;;;;;;3.33;0.60;;;20.10;99.90;;;;;;5110083;28;20624;-77
2022/12/18 05:00:44;;;;;;;2.80;0.60;;;19.90;99.90;;;;;;5104089;28;20564;-77
2022/12/18 05:03:15;;;;;;;2.35;0.60;;;20.00;99.90;;;;;;5116416;28;20184;-77
2022/12/18 05:05:46;;;;;;;3.35;0.60;;;20.10;99.90;;;;;;5116239;28;20227;-81
2022/12/18 05:08:16;;;;;;;4.63;0.70;;;20.10;99.90;;;;;;5116294;28;20212;-81
2022/12/18 05:10:47;;;;;;;3.80;0.70;;;20.00;99.90;;;;;;5114755;28;20238;-75
2022/12/18 05:13:18;;;;;;;2.38;0.60;;;19.70;99.90;;;;;;5115327;28;20270;-77
2022/12/18 05:15:55;;;;;;;2.42;0.63;;;19.60;99.90;;;;;;5113138;27;20196;-78
2022/12/18 05:18:26;;;;;;;2.67;0.55;;;19.60;99.90;;;;;;5117517;27;20199;-76
2022/12/18 05:20:57;;;;;;;3.47;0.68;;;19.60;99.90;;;;;;5114986;28;20183;-79
2022/12/18 05:23:29;;;;;;;4.95;0.80;;;19.60;99.90;;;;;;5112155;27;20217;-79
2022/12/18 05:26:01;;;;;;;5.43;0.60;;;19.50;99.90;;;;;;5118061;27;20195;-76
2022/12/18 05:28:33;;;;;;;8.32;0.88;;;19.50;99.90;;;;;;5114528;27;20220;-77
2022/12/18 05:31:07;;;;;;;4.07;0.73;;;19.60;99.90;;;;;;5108197;28;20522;-77
2022/12/18 05:33:39;;;;;;;2.85;0.73;;;19.60;99.90;;;;;;5114796;27;20195;-78
2022/12/18 05:36:11;;;;;;;2.15;0.60;;;19.60;99.90;;;;;;5113039;27;20241;-79
2022/12/18 05:38:43;;;;;;;3.72;0.55;;;19.60;99.90;;;;;;5109432;28;20222;-76
2022/12/18 05:41:13;;;;;;;2.13;0.45;;;19.70;99.90;;;;;;5112719;28;20183;-78
2022/12/18 05:43:45;;;;;;;3.78;0.43;;;19.80;99.90;;;;;;5115433;28;20642;-80
2022/12/18 05:46:19;;;;;;;5.13;0.57;;;19.70;99.90;;;;;;5115420;28;20538;-78
2022/12/18 05:48:51;;;;;;;2.33;0.60;;;19.70;99.90;;;;;;5115713;27;20223;-77
2022/12/18 05:51:23;;;;;;;1.65;0.60;;;19.60;99.90;;;;;;5115774;28;20225;-82
2022/12/18 05:53:54;;;;;;;3.45;0.63;;;19.60;99.90;;;;;;5112280;28;20199;-79
2022/12/18 05:56:25;;;;;;;2.95;0.63;;;19.40;99.90;;;;;;5114765;28;20275;-77
2022/12/18 05:58:57;;;;;;;4.93;0.52;;;19.40;99.90;;;;;;5110192;28;20535;-79
2022/12/18 06:01:30;;;;;;;2.38;0.65;;;19.40;99.90;;;;;;5101469;28;20228;-77
2022/12/18 06:04:01;;;;;;;3.75;0.82;;;19.40;99.90;;;;;;5109725;28;20192;-78
2022/12/18 06:06:32;;;;;;;3.60;0.80;;;19.40;99.90;;;;;;5113595;27;20435;-78
2022/12/18 06:09:07;;;;;;;5.32;1.13;;;19.40;99.90;;;;;;5122434;27;20226;-76
2022/12/18 06:11:44;;;;;;;5.45;0.73;;;19.40;99.90;;;;;;5115088;27;20191;-76
2022/12/18 06:14:17;;;;;;;2.70;0.68;;;19.40;99.90;;;;;;5117141;27;20198;-78
2022/12/18 06:16:49;;;;;;;6.45;0.82;;;19.40;99.90;;;;;;5110286;27;20203;-80
2022/12/18 06:19:20;;;;;;;4.55;0.90;;;19.20;99.90;;;;;;5119299;27;20191;-78
2022/12/18 06:21:54;;;;;;;5.68;0.98;;;19.30;99.90;;;;;;5103828;28;20196;-75
2022/12/18 06:24:24;;;;;;;6.32;1.15;;;19.40;99.90;;;;;;5101550;28;20202;-77
2022/12/18 06:26:55;;;;;;;3.58;0.80;;;19.30;99.90;;;;;;5115016;28;20316;-80
2022/12/18 06:29:26;;;;;;;4.32;0.80;;;19.20;99.90;;;;;;5115387;27;20578;-78
2022/12/18 06:31:59;;;;;;;5.13;1.00;;;19.20;99.90;;;;;;5111557;28;20203;-77
2022/12/18 06:34:29;;;;;;;4.85;0.95;;;19.20;99.90;;;;;;5114230;28;20272;-76
2022/12/18 06:37:04;;;;;;;3.60;0.77;;;19.20;99.90;;;;;;5112682;27;20232;-75
2022/12/18 06:39:36;;;;;;;7.57;0.80;;;19.20;99.90;;;;;;5113947;28;20584;-77
2022/12/18 06:42:07;;;;;;;3.65;0.75;;;19.20;99.90;;;;;;5114040;28;20188;-77
2022/12/18 06:44:38;;;;;;;4.85;0.73;;;19.20;99.90;;;;;;5117735;27;20282;-75
2022/12/18 06:47:10;;;;;;;2.45;0.63;;;19.20;99.90;;;;;;5120587;27;20203;-79
2022/12/18 06:49:41;;;;;;;4.35;0.80;;;19.20;99.90;;;;;;5114149;28;20289;-77
2022/12/18 06:52:12;;;;;;;3.72;0.63;;;19.10;99.90;;;;;;5112807;28;20702;-80
2022/12/18 06:54:43;;;;;;;3.45;1.02;;;19.00;99.90;;;;;;5108620;28;20688;-79
2022/12/18 06:57:14;;;;;;;2.05;0.65;;;19.00;99.90;;;;;;5111838;28;20192;-76
2022/12/18 06:59:45;;;;;;;3.97;0.80;;;19.00;99.90;;;;;;5111950;28;20659;-77
2022/12/18 07:02:18;;;;;;;3.38;0.70;;;19.10;99.90;;;;;;5112571;28;20629;-76
2022/12/18 07:04:48;;;;;;;7.05;0.95;;;19.20;99.90;;;;;;5112566;28;20210;-77
2022/12/18 07:07:19;;;;;;;2.88;0.65;;;19.10;99.90;;;;;;5108174;27;20192;-79
2022/12/18 07:09:51;;;;;;;3.65;0.65;;;19.10;99.90;;;;;;5112073;28;20221;-80
2022/12/18 07:12:22;;;;;;;4.78;0.70;;;19.10;99.90;;;;;;5111537;28;20187;-79
2022/12/18 07:14:53;;;;;;;3.40;1.10;;;19.00;99.90;;;;;;5111408;28;20192;-78
2022/12/18 07:17:25;;;;;;;4.63;0.93;;;19.00;99.90;;;;;;5111972;28;20638;-78
2022/12/18 07:19:56;;;;;;;2.78;0.70;;;18.90;99.90;;;;;;5109598;28;20192;-78
2022/12/18 07:22:28;;;;;;;4.45;0.80;;;18.80;99.90;;;;;;5112410;27;20206;-79
2022/12/18 07:24:59;;;;;;;1.90;0.60;;;18.60;99.90;;;;;;5110139;28;20198;-79
2022/12/18 07:27:30;;;;;;;3.88;0.70;;;18.50;99.90;;;;;;5110849;28;20221;-77
2022/12/18 07:30:01;;;;;;;2.90;0.60;;;18.40;99.90;;;;;;5114521;28;20215;-78
2022/12/18 07:32:34;;;;;;;5.32;0.95;;;18.40;99.90;;;;;;5107986;28;20191;-77
2022/12/18 07:35:07;;;;;;;4.57;0.63;;;18.50;99.90;;;;;;5111927;27;20670;-78
2022/12/18 07:37:38;;;;;;;5.50;0.80;;;18.60;99.90;;;;;;5108398;28;20227;-78
2022/12/18 07:40:09;;;;;;;6.10;1.00;;;18.60;99.90;;;;;;5111151;28;20219;-79
2022/12/18 07:42:40;;;;;;;4.93;0.77;;;18.60;99.90;;;;;;5114359;28;20568;-77
2022/12/18 07:45:11;;;;;;;1.75;0.57;;;18.60;99.90;;;;;;5110995;28;20194;-77
2022/12/18 07:47:44;;;;;;;3.05;0.80;;;18.40;99.90;;;;;;5108077;28;20686;-76
2022/12/18 07:50:15;;;;;;;4.63;0.95;;;18.30;99.90;;;;;;5107133;28;20203;-78
2022/12/18 07:52:46;;;;;;;3.70;0.70;;;18.20;99.90;;;;;;5120354;27;20198;-77
2022/12/18 07:55:17;;;;;;;2.75;0.63;;;18.20;99.90;;;;;;5115649;28;20658;-78
2022/12/18 07:57:47;;;;;;;4.75;0.70;;;18.20;99.90;;;;;;5111175;27;20191;-79
2022/12/18 08:00:20;;;;;;;5.15;0.80;;;18.20;99.90;;;;;;5108768;28;20665;-81
2022/12/18 08:02:53;;;;;;;5.70;0.98;;;18.20;99.90;;;;;;5110234;28;20203;-79
2022/12/18 08:05:24;;;;;;;8.93;0.90;;;18.10;99.90;;;;;;5110840;28;20594;-78
2022/12/18 08:07:55;;;;;;;8.48;0.90;;;18.00;99.90;;;;;;5111897;27;20187;-77
2022/12/18 08:10:26;;;;;;;5.60;0.90;;;18.00;99.90;;;;;;5111951;28;20875;-78
2022/12/18 08:12:57;;;;;;;4.60;1.05;;;17.90;99.90;;;;;;5112561;28;20195;-78
2022/12/18 08:15:28;;;;;;;4.85;0.82;;;18.00;99.90;;;;;;5114083;28;20285;-78
2022/12/18 08:18:02;;;;;;;3.25;0.75;;;18.00;99.90;;;;;;5119970;27;20195;-77
2022/12/18 08:20:33;;;;;;;3.40;0.63;;;18.00;99.90;;;;;;5113953;27;20205;-77
2022/12/18 08:23:04;;;;;;;2.83;0.52;;;18.00;99.90;;;;;;5121202;27;20714;-77
2022/12/18 08:25:35;;;;;;;1.38;0.60;;;18.10;99.90;;;;;;5114180;27;20647;-78
2022/12/18 08:28:06;;;;;;;3.90;0.60;;;18.10;99.90;;;;;;5130017;27;20234;-77
2022/12/18 08:30:37;;;;;;;3.22;0.60;;;18.00;99.90;;;;;;5111506;27;20249;-80
2022/12/18 08:33:10;;;;;;;2.05;0.60;;;18.00;99.90;;;;;;5113426;27;20198;-77
2022/12/18 08:35:41;;;;;;;3.70;0.60;;;18.00;99.90;;;;;;5115020;28;20210;-77
2022/12/18 08:38:13;;;;;;;2.58;0.50;;;18.00;99.90;;;;;;5114026;27;20195;-77
2022/12/18 08:40:44;;;;;;;3.42;0.65;;;17.90;99.90;;;;;;5112988;28;20223;-78
2022/12/18 08:46:01;;;;;;;2.40;0.75;;;17.80;99.90;;;;;;5113100;28;20195;-78
2022/12/18 08:48:34;;;;;;;1.90;0.60;;;17.60;99.90;;;;;;5104846;28;20180;-77
2022/12/18 08:51:05;;;;;;;3.08;0.60;;;17.50;99.90;;;;;;5112709;28;20643;-78
2022/12/18 08:53:35;;;;;;;5.68;0.88;;;17.50;99.90;;;;;;5116171;28;20187;-78
2022/12/18 08:56:07;;;;;;;5.47;0.77;;;17.40;99.90;;;;;;5116462;28;20191;-79
2022/12/18 08:58:37;;;;;;;7.22;0.80;;;17.30;99.90;;;;;;5115013;28;20578;-77
2022/12/18 09:01:11;;;;;;;2.72;0.60;;;17.20;99.90;;;;;;5110692;28;20192;-79
2022/12/18 09:03:44;;;;;;;4.00;0.70;;;17.10;99.90;;;;;;5103412;28;20230;-77
2022/12/18 09:06:17;;;;;;;4.93;0.93;;;16.90;99.90;;;;;;5104736;27;20200;-76
2022/12/18 09:08:48;;;;;;;2.88;0.60;;;16.80;99.90;;;;;;5114814;28;20191;-80
2022/12/18 09:11:23;;;;;;;4.07;0.60;;;16.70;99.90;;;;;;5116430;28;20187;-79
2022/12/18 09:13:54;;;;;;;4.57;0.80;;;16.70;99.90;;;;;;5115592;28;20184;-80
2022/12/18 09:16:27;;;;;;;2.15;0.73;;;16.70;99.90;;;;;;5115318;28;20266;-75
2022/12/18 09:19:01;;;;;;;1.50;0.50;;;16.60;99.90;;;;;;5115060;28;20202;-75
2022/12/18 09:21:33;;;;;;;3.38;0.70;;;16.60;99.90;;;;;;5115277;27;20195;-77
2022/12/18 09:24:04;;;;;;;2.05;0.70;;;16.50;99.90;;;;;;5115825;28;20191;-76
2022/12/18 09:26:35;;;;;;;3.13;0.75;;;16.50;99.90;;;;;;5114792;28;20199;-76
2022/12/18 09:29:07;;;;;;;3.78;0.88;;;16.60;99.90;;;;;;5114831;28;20264;-78
2022/12/18 09:31:38;;;;;;;4.10;0.77;;;16.50;99.90;;;;;;5114747;28;20209;-78
2022/12/18 09:34:11;;;;;;;3.28;0.70;;;16.50;99.90;;;;;;5116153;28;20238;-78
2022/12/18 09:36:42;;;;;;;3.17;0.77;;;16.50;99.90;;;;;;5114855;28;20318;-75
2022/12/18 09:39:14;;;;;;;2.75;0.60;;;16.50;99.90;;;;;;5114586;28;20573;-76
2022/12/18 09:41:49;;;;;;;5.30;0.80;;;16.50;99.90;;;;;;5115924;28;20546;-78
2022/12/18 09:44:27;;;;;;;4.07;0.90;;;16.50;99.90;;;;;;5115856;28;20592;-79
2022/12/18 09:47:16;;;;;;;1.25;0.65;;;16.50;99.90;;;;;;5115597;27;20192;-79
2022/12/18 09:49:51;;;;;;;2.03;0.70;;;16.60;99.90;;;;;;5115676;28;20219;-78
2022/12/18 09:52:28;;;;;;;3.45;0.90;;;16.60;99.90;;;;;;5115663;28;20653;-79
2022/12/18 09:55:04;;;;;;;3.97;0.90;;;16.60;99.90;;;;;;5114652;28;20199;-78
2022/12/18 09:57:38;;;;;;;3.95;0.93;;;16.60;99.90;;;;;;5110019;28;20199;-79
2022/12/18 10:00:17;;;;;;;3.78;0.70;;;16.60;99.90;;;;;;5115127;28;20188;-78
2022/12/18 10:02:48;;;;;;;5.88;0.90;;;16.60;99.90;;;;;;5114392;27;20199;-78
2022/12/18 10:05:31;;;;;;;1.45;0.60;;;16.70;99.90;;;;;;5115242;28;20196;-78
2022/12/18 10:08:08;;;;;;;3.63;0.65;;;16.70;99.90;;;;;;5115373;28;20272;-77
2022/12/18 10:10:45;;;;;;;3.30;0.85;;;16.70;99.90;;;;;;5113973;28;20222;-79
2022/12/18 10:13:26;;;;;;;3.28;0.68;;;16.70;99.90;;;;;;5115133;28;20193;-78
2022/12/18 10:16:11;;;;;;;4.15;0.70;;;16.70;99.90;;;;;;5114981;28;20278;-80
2022/12/18 10:18:59;;;;;;;4.80;0.95;;;16.70;99.90;;;;;;5114419;28;20556;-80
2022/12/18 10:21:41;;;;;;;3.05;0.70;;;16.80;99.90;;;;;;5114976;28;20230;-79
2022/12/18 10:24:20;;;;;;;2.78;0.68;;;16.70;99.90;;;;;;5114044;27;20195;-77
2022/12/18 10:26:54;;;;;;;5.75;0.80;;;16.80;99.90;;;;;;5094659;28;20625;-79
2022/12/18 10:29:27;;;;;;;5.68;0.80;;;16.80;99.90;;;;;;5094262;28;20212;-79
2022/12/18 10:31:58;;;;;;;3.03;0.90;;;16.80;99.90;;;;;;5094770;28;20593;-79
2022/12/18 10:34:28;;;;;;;4.70;0.88;;;16.90;99.90;;;;;;5096396;28;21131;-79
2022/12/18 10:37:03;;;;;;;3.03;0.88;;;16.80;99.90;;;;;;5114635;28;20629;-78
2022/12/18 10:39:34;;;;;;;3.63;0.80;;;16.90;99.90;;;;;;5114230;28;20219;-78
2022/12/18 10:42:19;;;;;;;6.18;0.93;;;16.90;99.90;;;;;;5112519;28;20195;-79
2022/12/18 10:45:03;;;;;;;4.90;0.95;;;16.90;99.90;;;;;;5114349;28;20188;-78
2022/12/18 10:47:36;;;;;;;4.93;0.85;;;16.90;99.90;;;;;;5114593;28;20620;-78
2022/12/18 10:50:07;;;;;;;3.72;0.90;;;16.90;99.90;;;;;;5113576;28;20215;-78
2022/12/18 10:52:40;;;;;;;8.90;1.10;;;16.80;99.90;;;;;;5114425;28;20183;-78
2022/12/18 10:55:20;;;;;;;5.53;1.23;;;16.80;99.90;;;;;;5114303;28;20274;-79
2022/12/18 10:57:51;;;;;;;5.53;0.93;;;16.70;99.90;;;;;;5103472;28;20199;-79
2022/12/18 11:00:29;;;;;;;8.02;1.25;;;16.70;99.90;;;;;;5109493;27;20188;-79
2022/12/18 11:03:00;;;;;;;7.88;1.85;;;16.60;99.90;;;;;;5109099;27;20213;-80
2022/12/18 11:05:33;;;;;;;7.68;1.00;;;16.60;99.90;;;;;;5110284;27;20199;-78
2022/12/18 11:08:06;;;;;;;5.80;1.00;;;16.60;99.90;;;;;;5108808;27;20202;-78
2022/12/18 11:10:38;;;;;;;4.05;1.10;;;16.60;99.90;;;;;;5113974;27;20219;-77
2022/12/18 11:13:23;;;;;;;6.25;1.00;;;16.60;99.90;;;;;;5113071;28;20187;-79
2022/12/18 11:15:54;;;;;;;4.53;1.00;;;16.50;99.90;;;;;;5123486;27;20190;-78
2022/12/18 11:18:30;;;;;;;5.32;0.90;;;16.50;99.90;;;;;;5118546;27;20204;-78
2022/12/18 11:21:03;;;;;;;5.20;1.20;;;16.50;99.90;;;;;;5134511;27;20186;-77
2022/12/18 11:23:38;;;;;;;5.72;1.10;;;16.50;99.90;;;;;;5113059;27;20566;-77
2022/12/18 11:26:09;;;;;;;5.32;0.90;;;16.50;99.90;;;;;;5113952;28;20189;-75
2022/12/18 11:28:42;;;;;;;7.88;1.35;;;16.50;99.90;;;;;;5115289;27;20194;-77
2022/12/18 11:31:25;;;;;;;5.65;1.10;;;16.40;99.90;;;;;;5113035;27;20268;-77
2022/12/18 11:34:11;;;;;;;6.50;1.20;;;16.30;99.90;;;;;;5118985;27;20196;-77
2022/12/18 11:36:44;;;;;;;3.55;0.90;;;16.30;99.90;;;;;;5102863;28;20229;-78
2022/12/18 11:39:24;;;;;;;7.78;1.38;;;16.30;99.90;;;;;;5111370;28;20211;-78
2022/12/18 11:42:14;;;;;;;7.47;1.00;;;16.10;99.90;;;;;;5103594;28;20191;-77
2022/12/18 11:44:52;;;;;;;6.45;1.23;;;16.20;99.90;;;;;;5107088;28;20241;-78
2022/12/18 11:47:31;;;;;;;8.27;1.00;;;16.10;99.90;;;;;;5108321;28;20199;-77
2022/12/18 11:50:05;;;;;;;7.63;1.20;;;16.10;99.90;;;;;;5113630;28;20217;-77
2022/12/18 11:52:42;;;;;;;4.95;1.00;;;16.00;99.90;;;;;;5124788;27;20559;-77
2022/12/18 11:55:18;;;;;;;4.72;1.17;;;16.00;99.90;;;;;;5117523;28;20206;-77
2022/12/18 11:58:00;;;;;;;8.93;1.50;;;16.00;99.90;;;;;;5110727;27;20191;-77
2022/12/18 12:00:31;;;;;;;4.80;1.10;;;16.00;99.90;;;;;;5134328;27;20584;-77
2022/12/18 12:03:26;;;;;;;4.53;0.95;;;16.00;99.90;;;;;;5121235;27;20199;-77
2022/12/18 12:06:08;;;;;;;6.70;1.33;;;15.90;99.90;;;;;;5118640;27;20295;-77
2022/12/18 12:08:53;;;;;;;5.95;1.20;;;15.90;99.90;;;;;;5119231;27;20199;-78
2022/12/18 12:11:34;;;;;;;8.40;1.30;;;15.90;99.90;;;;;;5117370;28;20682;-78
2022/12/18 12:14:27;;;;;;;7.22;1.30;;;15.90;99.90;;;;;;5117154;27;20188;-78
2022/12/18 12:17:05;;;;;;;5.82;1.35;;;15.90;99.90;;;;;;5106115;28;20192;-80
2022/12/18 12:19:50;;;;;;;3.92;1.00;;;15.90;99.90;;;;;;5115407;28;20677;-80
2022/12/18 12:22:30;;;;;;;7.93;1.70;;;15.80;99.90;;;;;;5114854;28;20584;-75
2022/12/18 12:25:17;;;;;;;5.13;0.88;;;15.70;99.90;;;;;;5117152;28;20187;-82
2022/12/18 12:27:59;;;;;;;10.80;1.23;;;15.60;99.90;;;;;;5096904;28;20195;-81
2022/12/18 12:30:38;;;;;;;5.68;1.00;;;15.50;99.90;;;;;;5096717;28;20303;-79
2022/12/18 12:33:24;;;;;;;4.28;1.00;;;15.50;99.90;;;;;;5096661;28;20198;-81
2022/12/18 12:36:03;;;;;;;5.30;1.20;;;15.50;99.90;;;;;;5097114;28;20234;-80
2022/12/18 12:38:39;;;;;;;6.55;0.90;;;15.50;99.90;;;;;;5106351;28;20676;-82
2022/12/18 12:44:05;;;;;;;8.38;1.17;;;15.40;99.90;;;;;;5117058;28;20222;-81
2022/12/18 12:46:41;;;;;;;6.35;1.35;;;15.40;99.90;;;;;;5116921;28;20191;-82
2022/12/18 12:49:16;;;;;;;3.83;0.80;;;15.40;99.90;;;;;;5116959;28;20191;-82
2022/12/18 12:51:53;;;;;;;6.28;0.90;;;15.40;99.90;;;;;;5116776;28;20214;-81
2022/12/18 12:54:28;;;;;;;8.85;1.30;;;15.40;99.90;;;;;;5116527;27;20231;-80
2022/12/18 12:57:11;;;;;;;5.28;1.10;;;15.30;99.90;;;;;;5116426;28;20243;-81
2022/12/18 12:59:51;;;;;;;5.43;1.20;;;15.30;99.90;;;;;;5116666;28;20192;-81
2022/12/18 13:02:26;;;;;;;6.82;1.33;;;15.30;99.90;;;;;;5116768;28;20192;-82
2022/12/18 13:05:04;;;;;;;8.00;1.23;;;15.30;99.90;;;;;;5098686;28;20702;-80
2022/12/18 13:07:43;;;;;;;7.82;1.30;;;15.30;99.90;;;;;;5096282;28;20530;-82
2022/12/18 13:10:37;;;;;;;5.18;1.00;;;15.30;99.90;;;;;;5094757;28;20208;-83
2022/12/18 13:13:09;;;;;;;11.05;1.40;;;15.40;99.90;;;;;;5110036;28;20199;-81
2022/12/18 13:16:07;;;;;;;7.05;1.58;;;15.30;99.90;;;;;;5097932;28;20320;-81
2022/12/18 13:18:38;;;;;;;9.32;1.38;;;15.40;99.90;;;;;;5095905;28;20196;-82
2022/12/18 13:21:21;;;;;;;6.63;1.48;;;15.40;99.90;;;;;;5095975;28;20193;-82
2022/12/18 13:23:52;;;;;;;10.27;1.38;;;15.40;99.90;;;;;;5095706;28;20192;-81
2022/12/18 13:26:40;;;;;;;9.95;2.00;;;15.40;99.90;;;;;;5115419;27;20195;-82
2022/12/18 13:29:10;;;;;;;7.22;1.52;;;15.40;99.90;;;;;;5112256;28;20217;-80